createdAt,value
2019-05-02T00:01:17.775Z,8.45
2019-05-02T00:03:47.039Z,8.63
2019-05-02T00:06:16.729Z,8.75
2019-05-02T00:11:14.579Z,8.53
2019-05-02T00:13:43.543Z,8.38
2019-05-02T00:18:43.421Z,8.88
2019-05-02T00:21:12.707Z,8.15
2019-05-02T00:26:12.063Z,7.85
2019-05-02T00:28:42.988Z,8.13
2019-05-02T00:33:42.728Z,7.87
2019-05-02T00:36:12.409Z,7.97
2019-05-02T00:38:42.471Z,8.55
2019-05-02T00:41:12.563Z,8.75
2019-05-02T00:43:42.581Z,8.43
2019-05-02T00:46:12.073Z,8.33
2019-05-02T00:48:47.549Z,7.65
2019-05-02T00:53:48.386Z,8.08
2019-05-02T00:56:15.606Z,8.15
2019-05-02T00:58:44.696Z,8.20
2019-05-02T01:01:33.302Z,8.35
2019-05-02T01:04:07.875Z,8.23
2019-05-02T01:06:36.722Z,8.68
2019-05-02T01:11:38.792Z,8.45
2019-05-02T01:14:08.650Z,8.38
2019-05-02T01:16:38.681Z,8.18
2019-05-02T01:19:12.139Z,8.20
2019-05-02T01:21:42.902Z,8.68
2019-05-02T01:24:13.445Z,9.03
2019-05-02T01:27:06.492Z,8.83
2019-05-02T01:32:40.387Z,8.55
2019-05-02T01:35:20.491Z,8.65
2019-05-02T01:38:14.786Z,8.80
2019-05-02T01:40:48.209Z,9.25
2019-05-02T01:43:25.813Z,9.38
2019-05-02T01:45:55.572Z,9.55
2019-05-02T01:48:24.919Z,8.85
2019-05-02T01:50:54.021Z,8.83
2019-05-02T01:53:23.305Z,8.43
2019-05-02T01:55:57.378Z,8.90
2019-05-02T01:58:24.467Z,9.03
2019-05-02T02:00:53.405Z,8.70
2019-05-02T02:03:22.402Z,9.80
2019-05-02T02:05:51.562Z,9.13
2019-05-02T02:08:20.445Z,9.35
2019-05-02T02:10:56.629Z,9.50
2019-05-02T02:13:21.260Z,9.18
2019-05-02T02:15:50.025Z,10.30
2019-05-02T02:18:22.366Z,10.32
2019-05-02T02:21:13.608Z,9.75
2019-05-02T02:23:53.635Z,9.45
2019-05-02T02:26:22.766Z,10.13
2019-05-02T02:31:21.486Z,9.68
2019-05-02T02:33:50.424Z,9.95
2019-05-02T02:36:29.990Z,9.60
2019-05-02T02:38:50.539Z,10.13
2019-05-02T02:41:19.488Z,10.00
2019-05-02T02:44:13.495Z,10.40
2019-05-02T02:46:44.883Z,10.72
2019-05-02T02:49:20.751Z,11.22
2019-05-02T02:51:44.706Z,11.08
2019-05-02T02:56:43.393Z,10.30
2019-05-02T02:59:19.482Z,10.78
2019-05-02T03:04:13.056Z,10.72
2019-05-02T03:06:44.981Z,10.93
2019-05-02T03:12:05.373Z,10.15
2019-05-02T03:14:40.989Z,10.95
2019-05-02T03:17:10.488Z,10.53
2019-05-02T03:19:39.720Z,10.25
2019-05-02T03:22:08.685Z,10.63
2019-05-02T03:24:44.142Z,10.58
2019-05-02T03:27:08.627Z,11.05
2019-05-02T03:29:44.357Z,11.00
2019-05-02T03:32:15.976Z,10.93
2019-05-02T03:34:52.847Z,10.93
2019-05-02T03:37:13.937Z,11.48
2019-05-02T03:39:49.310Z,11.48
2019-05-02T03:42:14.684Z,10.23
2019-05-02T03:49:48.528Z,10.80
2019-05-02T03:52:15.082Z,10.70
2019-05-02T03:54:50.305Z,11.43
2019-05-02T03:57:15.782Z,10.30
2019-05-02T03:59:44.747Z,11.48
2019-05-02T04:02:20.331Z,10.45
2019-05-02T04:04:54.116Z,11.10
2019-05-02T04:07:19.822Z,10.80
2019-05-02T04:09:49.282Z,11.33
2019-05-02T04:12:21.553Z,11.00
2019-05-02T04:14:55.495Z,11.33
2019-05-02T04:17:21.395Z,10.70
2019-05-02T04:19:51.306Z,10.80
2019-05-02T04:22:21.686Z,11.15
2019-05-02T04:27:27.671Z,10.48
2019-05-02T04:29:52.980Z,11.50
2019-05-02T04:32:22.088Z,11.63
2019-05-02T04:34:55.090Z,11.60
2019-05-02T04:37:22.120Z,10.00
2019-05-02T04:39:53.857Z,10.90
2019-05-02T04:42:23.151Z,10.43
2019-05-02T04:45:12.157Z,11.10
2019-05-02T04:47:23.511Z,10.75
2019-05-02T04:49:52.402Z,9.90
2019-05-02T04:52:21.520Z,9.55
2019-05-02T04:54:50.949Z,8.68
2019-05-02T04:57:19.980Z,8.18
2019-05-02T04:59:50.526Z,7.62
2019-05-02T05:02:29.278Z,7.97
2019-05-02T05:04:50.680Z,7.12
2019-05-02T05:09:57.168Z,7.47
2019-05-02T05:12:19.462Z,7.30
2019-05-02T05:14:48.716Z,7.53
2019-05-02T05:22:18.540Z,7.33
2019-05-02T05:24:54.100Z,7.15
2019-05-02T05:27:23.492Z,7.08
2019-05-02T05:29:53.547Z,6.67
2019-05-02T05:32:24.244Z,7.00
2019-05-02T05:34:53.117Z,6.80
2019-05-02T05:37:22.296Z,6.60
2019-05-02T05:39:52.715Z,7.42
2019-05-02T05:42:23.416Z,7.55
2019-05-02T05:44:52.958Z,7.37
2019-05-02T05:47:21.925Z,7.35
2019-05-02T05:49:52.161Z,7.75
2019-05-02T05:52:22.298Z,7.80
2019-05-02T05:54:51.712Z,7.90
2019-05-02T05:59:50.404Z,8.00
2019-05-02T06:02:19.481Z,7.92
2019-05-02T06:04:50.229Z,7.85
2019-05-02T06:07:20.033Z,8.30
2019-05-02T06:09:49.465Z,8.30
2019-05-02T06:12:18.500Z,7.65
2019-05-02T06:14:47.687Z,8.65
2019-05-02T06:17:17.103Z,7.37
2019-05-02T06:19:48.337Z,8.28
2019-05-02T06:24:50.946Z,7.85
2019-05-02T06:27:20.785Z,8.10
2019-05-02T06:29:51.133Z,8.45
2019-05-02T06:32:20.689Z,7.60
2019-05-02T06:34:49.915Z,7.30
2019-05-02T06:37:19.713Z,7.90
2019-05-02T06:42:17.583Z,7.75
2019-05-02T06:47:16.401Z,7.72
2019-05-02T06:49:46.094Z,8.15
2019-05-02T06:52:15.952Z,7.45
2019-05-02T06:54:45.988Z,7.92
2019-05-02T06:57:18.991Z,7.40
2019-05-02T06:59:49.981Z,7.42
2019-05-02T07:02:19.588Z,8.15
2019-05-02T07:04:54.678Z,8.00
2019-05-02T07:07:25.104Z,8.53
2019-05-02T07:09:52.908Z,8.95
2019-05-02T07:12:27.476Z,8.93
2019-05-02T07:15:01.532Z,7.75
2019-05-02T07:17:43.547Z,7.85
2019-05-02T07:20:14.471Z,8.18
2019-05-02T07:22:45.691Z,8.45
2019-05-02T07:25:18.090Z,8.15
2019-05-02T07:27:48.125Z,8.13
2019-05-02T07:30:19.033Z,7.90
2019-05-02T07:32:48.120Z,8.25
2019-05-02T07:35:19.150Z,7.53
2019-05-02T07:37:48.804Z,7.75
2019-05-02T07:40:19.737Z,8.60
2019-05-02T07:42:48.855Z,8.00
2019-05-02T07:45:18.614Z,8.25
2019-05-02T07:47:47.600Z,7.80
2019-05-02T07:52:46.539Z,7.97
2019-05-02T07:55:16.557Z,8.40
2019-05-02T07:57:46.398Z,8.58
2019-05-02T08:00:19.563Z,8.45
2019-05-02T08:02:48.582Z,7.70
2019-05-02T08:05:21.815Z,8.08
2019-05-02T08:07:53.273Z,8.50
2019-05-02T08:10:21.843Z,8.03
2019-05-02T08:12:51.752Z,9.60
2019-05-02T08:15:24.707Z,8.60
2019-05-02T08:17:55.303Z,7.85
2019-05-02T08:20:24.406Z,8.78
2019-05-02T08:22:53.442Z,9.18
2019-05-02T08:25:22.734Z,8.28
2019-05-02T08:27:57.575Z,10.10
2019-05-02T08:30:35.317Z,8.65
2019-05-02T08:35:33.287Z,8.55
2019-05-02T08:38:02.120Z,8.38
2019-05-02T08:40:30.962Z,8.23
2019-05-02T08:43:03.658Z,9.28
2019-05-02T08:45:33.087Z,7.97
2019-05-02T08:48:05.093Z,7.75
2019-05-02T08:50:34.034Z,8.38
2019-05-02T08:53:03.129Z,8.45
2019-05-02T08:55:33.318Z,10.13
2019-05-02T08:58:06.098Z,8.53
2019-05-02T09:00:37.468Z,8.80
2019-05-02T09:03:04.739Z,8.05
2019-05-02T09:05:36.902Z,8.28
2019-05-02T09:08:09.017Z,8.65
2019-05-02T09:13:06.059Z,9.03
2019-05-02T09:15:40.249Z,8.25
2019-05-02T09:20:03.470Z,8.98
2019-05-02T09:22:30.446Z,8.50
2019-05-02T09:25:02.116Z,8.80
2019-05-02T09:27:32.153Z,8.70
2019-05-02T09:30:02.798Z,8.28
2019-05-02T09:32:37.255Z,8.65
2019-05-02T09:35:07.512Z,8.48
2019-05-02T09:37:36.728Z,9.20
2019-05-02T09:40:06.915Z,7.90
2019-05-02T09:42:36.709Z,8.78
2019-05-02T09:47:52.780Z,8.68
2019-05-02T09:50:12.716Z,8.85
2019-05-02T09:52:46.908Z,9.90
2019-05-02T09:55:19.044Z,8.80
2019-05-02T09:57:48.160Z,9.30
2019-05-02T10:00:36.072Z,8.98
2019-05-02T10:03:02.795Z,9.00
2019-05-02T10:05:42.777Z,8.48
2019-05-02T10:10:03.169Z,9.38
2019-05-02T10:12:34.148Z,8.10
2019-05-02T10:15:04.682Z,8.85
2019-05-02T10:17:37.465Z,8.35
2019-05-02T10:20:12.341Z,8.78
2019-05-02T10:22:41.880Z,9.35
2019-05-02T10:25:15.651Z,10.08
2019-05-02T10:27:49.099Z,10.15
2019-05-02T10:30:22.759Z,8.98
2019-05-02T10:32:56.137Z,10.48
2019-05-02T10:37:55.819Z,10.00
2019-05-02T10:40:25.226Z,10.05
2019-05-02T10:42:54.298Z,9.95
2019-05-02T10:45:25.352Z,9.63
2019-05-02T10:47:56.059Z,10.05
2019-05-02T10:50:33.263Z,9.18
2019-05-02T10:53:12.230Z,9.80
2019-05-02T10:55:43.703Z,8.98
2019-05-02T10:58:13.304Z,9.55
2019-05-02T11:00:45.404Z,8.98
2019-05-02T11:03:27.174Z,10.03
2019-05-02T11:06:03.675Z,9.63
2019-05-02T11:08:31.994Z,9.13
2019-05-02T11:11:03.178Z,10.78
2019-05-02T11:14:00.885Z,10.20
2019-05-02T11:16:39.980Z,10.15
2019-05-02T11:19:21.949Z,9.60
2019-05-02T11:21:56.554Z,9.40
2019-05-02T11:24:25.792Z,9.43
2019-05-02T11:26:57.517Z,9.10
2019-05-02T11:29:26.570Z,9.00
2019-05-02T11:31:56.399Z,9.53
2019-05-02T11:34:26.286Z,9.50
2019-05-02T11:36:55.952Z,10.13
2019-05-02T11:39:33.416Z,9.95
2019-05-02T11:42:01.950Z,10.18
2019-05-02T11:44:32.658Z,10.45
2019-05-02T11:47:03.909Z,10.03
2019-05-02T11:49:33.793Z,10.88
2019-05-02T11:52:09.595Z,10.95
2019-05-02T11:57:11.703Z,11.53
2019-05-02T11:59:47.290Z,11.55
2019-05-02T12:02:58.512Z,11.50
2019-05-02T12:05:39.255Z,12.15
2019-05-02T12:08:09.541Z,9.88
2019-05-02T12:10:42.253Z,10.48
2019-05-02T12:13:16.065Z,12.95
2019-05-02T12:15:44.476Z,10.95
2019-05-02T12:18:20.650Z,10.78
2019-05-02T12:20:51.777Z,11.68
2019-05-02T12:23:22.623Z,12.05
2019-05-02T12:25:52.795Z,11.48
2019-05-02T12:28:22.934Z,10.95
2019-05-02T12:30:52.986Z,11.35
2019-05-02T12:33:24.885Z,11.33
2019-05-02T12:35:54.460Z,10.72
2019-05-02T12:38:23.549Z,10.90
2019-05-02T12:40:53.428Z,10.70
2019-05-02T12:43:23.016Z,11.55
2019-05-02T12:45:53.062Z,13.15
2019-05-02T12:48:23.472Z,11.73
2019-05-02T12:50:53.507Z,12.40
2019-05-02T12:53:23.493Z,11.18
2019-05-02T12:55:53.514Z,11.15
2019-05-02T12:58:23.497Z,11.40
2019-05-02T13:00:53.325Z,11.25
2019-05-02T13:03:57.811Z,12.00
2019-05-02T13:06:27.607Z,9.78
2019-05-02T13:11:36.873Z,10.30
2019-05-02T13:14:16.863Z,9.70
2019-05-02T13:16:39.967Z,8.68
2019-05-02T13:19:11.791Z,8.80
2019-05-02T13:22:07.691Z,9.55
2019-05-02T13:27:18.624Z,8.13
2019-05-02T13:32:38.068Z,8.45
2019-05-02T13:35:15.697Z,7.72
2019-05-02T13:40:26.445Z,8.18
2019-05-02T13:42:55.579Z,7.78
2019-05-02T13:45:44.115Z,6.92
2019-05-02T13:48:13.406Z,7.50
2019-05-02T13:50:42.572Z,7.30
2019-05-02T13:53:12.189Z,8.13
2019-05-02T13:55:47.523Z,8.38
2019-05-02T13:58:28.280Z,7.42
2019-05-02T14:00:49.734Z,7.22
2019-05-02T14:03:19.040Z,7.03
2019-05-02T14:05:50.785Z,7.05
2019-05-02T14:08:38.547Z,6.25
2019-05-02T14:11:26.581Z,7.10
2019-05-02T14:13:55.562Z,6.47
2019-05-02T14:18:53.071Z,6.28
2019-05-02T14:21:22.506Z,6.33
2019-05-02T14:23:51.897Z,7.37
2019-05-02T14:26:29.644Z,6.47
2019-05-02T14:28:53.251Z,6.70
2019-05-02T14:31:22.413Z,6.50
2019-05-02T14:34:22.890Z,6.40
2019-05-02T14:36:57.466Z,6.08
2019-05-02T14:39:23.724Z,6.70
2019-05-02T14:41:52.946Z,6.75
2019-05-02T14:44:26.863Z,6.78
2019-05-02T14:46:53.152Z,6.05
2019-05-02T14:49:25.507Z,6.70
2019-05-02T14:51:57.259Z,7.47
2019-05-02T14:54:24.600Z,6.78
2019-05-02T14:59:42.868Z,6.70
2019-05-02T15:02:19.023Z,6.70
2019-05-02T15:04:49.065Z,6.40
2019-05-02T15:07:22.886Z,7.03
2019-05-02T15:09:52.680Z,6.55
2019-05-02T15:12:22.280Z,6.80
2019-05-02T15:14:57.333Z,7.87
2019-05-02T15:17:23.486Z,9.60
2019-05-02T15:19:52.826Z,10.50
2019-05-02T15:22:22.839Z,10.95
2019-05-02T15:24:52.981Z,9.93
2019-05-02T15:27:23.026Z,10.60
2019-05-02T15:29:53.872Z,11.08
2019-05-02T15:32:46.320Z,11.80
2019-05-02T15:35:36.118Z,10.72
2019-05-02T15:38:06.819Z,11.15
2019-05-02T15:40:46.950Z,10.95
2019-05-02T15:43:09.634Z,6.45
2019-05-02T15:45:42.174Z,5.15
2019-05-02T15:48:14.625Z,5.15
2019-05-02T15:50:50.185Z,5.10
2019-05-02T15:53:26.292Z,4.78
2019-05-02T15:55:55.809Z,5.12
2019-05-02T15:58:27.886Z,4.92
2019-05-02T16:01:25.145Z,4.83
2019-05-02T16:05:44.460Z,5.40
2019-05-02T16:08:12.693Z,5.70
2019-05-02T16:10:42.881Z,5.40
2019-05-02T16:13:17.067Z,5.80
2019-05-02T16:15:44.769Z,5.33
2019-05-02T16:18:13.994Z,5.42
2019-05-02T16:21:02.229Z,4.65
2019-05-02T16:23:29.886Z,4.05
2019-05-02T16:25:56.758Z,3.52
2019-05-02T16:28:23.535Z,3.50
2019-05-02T16:30:56.070Z,3.80
2019-05-02T16:33:26.147Z,3.70
2019-05-02T16:35:55.055Z,3.70
2019-05-02T16:38:26.724Z,3.30
2019-05-02T16:40:55.101Z,3.35
2019-05-02T16:43:27.004Z,3.40
2019-05-02T16:45:56.139Z,3.65
2019-05-02T16:48:25.289Z,3.70
2019-05-02T16:50:54.597Z,4.12
2019-05-02T16:53:26.123Z,3.77
2019-05-02T16:55:58.518Z,3.67
2019-05-02T16:58:25.956Z,3.92
2019-05-02T17:00:55.307Z,3.60
2019-05-02T17:03:26.411Z,3.10
2019-05-02T17:05:55.662Z,2.95
2019-05-02T17:11:44.696Z,3.98
2019-05-02T17:19:12.288Z,4.37
2019-05-02T17:21:52.853Z,4.67
2019-05-02T17:24:12.719Z,4.58
2019-05-02T17:26:42.323Z,4.42
2019-05-02T17:29:11.906Z,4.78
2019-05-02T17:31:42.676Z,4.42
2019-05-02T17:34:14.854Z,5.00
2019-05-02T17:36:45.780Z,5.20
2019-05-02T17:39:15.091Z,5.40
2019-05-02T17:41:45.742Z,4.95
2019-05-02T17:44:18.362Z,5.00
2019-05-02T17:49:13.965Z,4.50
2019-05-02T17:52:05.665Z,5.00
2019-05-02T17:54:32.511Z,4.83
2019-05-02T17:57:02.165Z,5.67
2019-05-02T17:59:36.019Z,5.17
2019-05-02T18:02:06.639Z,5.53
2019-05-02T18:04:36.629Z,5.08
2019-05-02T18:07:06.336Z,5.90
2019-05-02T18:09:35.439Z,6.00
2019-05-02T18:12:14.457Z,6.50
2019-05-02T18:14:39.109Z,6.60
2019-05-02T18:17:08.629Z,6.70
2019-05-02T18:22:22.477Z,11.38
2019-05-02T18:24:42.752Z,7.42
2019-05-02T18:27:09.867Z,7.72
2019-05-02T18:29:42.700Z,7.67
2019-05-02T18:32:10.322Z,7.83
2019-05-02T18:34:41.632Z,7.97
2019-05-02T18:37:10.514Z,10.15
2019-05-02T18:39:44.782Z,9.30
2019-05-02T18:42:11.943Z,8.68
2019-05-02T18:44:42.016Z,8.38
2019-05-02T18:47:12.508Z,8.85
2019-05-02T18:49:43.568Z,8.28
2019-05-02T18:52:14.940Z,8.65
2019-05-02T18:54:47.385Z,8.33
2019-05-02T18:57:17.064Z,9.15
2019-05-02T18:59:45.929Z,9.08
2019-05-02T19:02:15.075Z,8.10
2019-05-02T19:04:44.106Z,8.98
2019-05-02T19:07:15.863Z,9.55
2019-05-02T19:09:51.027Z,10.10
2019-05-02T19:12:22.460Z,11.00
2019-05-02T19:17:25.749Z,9.78
2019-05-02T19:19:54.718Z,9.48
2019-05-02T19:24:52.611Z,8.60
2019-05-02T19:33:03.730Z,7.58
2019-05-02T19:35:32.782Z,7.30
2019-05-02T19:38:02.663Z,7.70
2019-05-02T19:40:32.000Z,7.92
2019-05-02T19:43:06.049Z,8.00
2019-05-02T19:45:32.737Z,7.80
2019-05-02T19:48:02.617Z,8.20
2019-05-02T19:50:43.638Z,8.15
2019-05-02T19:53:17.752Z,8.38
2019-05-02T19:58:13.305Z,9.38
2019-05-02T20:00:46.218Z,8.70
2019-05-02T20:05:45.313Z,10.13
2019-05-02T20:08:19.883Z,9.68
2019-05-02T20:10:49.372Z,10.03
2019-05-02T20:15:57.077Z,11.33
2019-05-02T20:21:23.400Z,13.22
2019-05-02T20:23:47.019Z,13.50
2019-05-02T20:26:17.243Z,14.03
2019-05-02T20:28:47.390Z,14.23
2019-05-02T20:31:17.754Z,14.80
2019-05-02T20:33:48.078Z,14.98
2019-05-02T20:36:18.535Z,17.00
2019-05-02T20:38:48.295Z,18.25
2019-05-02T20:41:18.895Z,17.45
2019-05-02T20:46:22.335Z,18.77
2019-05-02T20:48:53.819Z,19.85
2019-05-02T20:51:23.847Z,19.32
2019-05-02T20:53:53.783Z,20.35
2019-05-02T20:56:24.697Z,19.37
2019-05-02T20:58:54.504Z,20.90
2019-05-02T21:01:25.466Z,20.52
2019-05-02T21:03:55.998Z,21.65
2019-05-02T21:06:52.747Z,21.65
2019-05-02T21:09:46.609Z,22.87
2019-05-02T21:12:17.601Z,23.47
2019-05-02T21:17:14.968Z,22.65
2019-05-02T21:19:44.006Z,23.55
2019-05-02T21:22:22.757Z,25.35
2019-05-02T21:27:22.068Z,24.98
2019-05-02T21:29:52.218Z,24.72
2019-05-02T21:32:22.932Z,25.27
2019-05-02T21:34:52.155Z,24.35
2019-05-02T21:37:22.623Z,24.72
2019-05-02T21:42:22.576Z,24.32
2019-05-02T21:44:52.011Z,24.50
2019-05-02T21:47:22.502Z,23.52
2019-05-02T21:50:21.771Z,25.60
2019-05-02T21:53:22.065Z,25.65
2019-05-02T21:56:14.273Z,25.02
2019-05-02T21:59:02.970Z,24.77
2019-05-02T22:01:44.919Z,28.02
2019-05-02T22:04:15.148Z,26.23
2019-05-02T22:06:47.683Z,25.55
2019-05-02T22:09:19.047Z,26.15
2019-05-02T22:11:48.977Z,26.33
2019-05-02T22:14:18.483Z,27.58
2019-05-02T22:16:47.438Z,26.37
2019-05-02T22:19:18.081Z,27.50
2019-05-02T22:21:49.595Z,25.90
2019-05-02T22:24:19.984Z,28.15
2019-05-02T22:26:52.428Z,27.35
2019-05-02T22:29:21.959Z,28.32
2019-05-02T22:31:52.158Z,27.60
2019-05-02T22:34:22.744Z,27.30
2019-05-02T22:39:57.764Z,26.97
2019-05-02T22:42:28.918Z,26.95
2019-05-02T22:44:58.428Z,27.50
2019-05-02T22:47:27.422Z,27.00
2019-05-02T22:49:56.754Z,27.27
2019-05-02T22:57:27.496Z,27.40
2019-05-02T22:59:57.028Z,26.68
2019-05-02T23:02:25.997Z,26.27
2019-05-02T23:04:55.085Z,28.02
2019-05-02T23:07:29.966Z,27.02
2019-05-02T23:09:59.224Z,25.23
2019-05-02T23:12:28.593Z,27.25
2019-05-02T23:14:57.722Z,27.02
2019-05-02T23:17:26.709Z,26.45
2019-05-02T23:22:24.569Z,27.67
2019-05-02T23:25:25.819Z,28.70
2019-05-02T23:27:58.599Z,26.97
2019-05-02T23:32:55.952Z,26.82
2019-05-02T23:35:25.482Z,26.48
2019-05-02T23:37:58.780Z,28.25
2019-05-02T23:40:28.305Z,25.30
2019-05-02T23:42:57.541Z,25.37
2019-05-02T23:45:27.144Z,26.00
2019-05-02T23:47:56.943Z,25.52
2019-05-02T23:50:26.515Z,26.48
2019-05-02T23:52:55.606Z,25.60
2019-05-02T23:55:25.723Z,25.27
2019-05-02T23:57:54.780Z,25.50
